sensor_id;sensor_type;location;lat;lon;timestamp;temperature;humidity
74822;DHT22;63353;48.702;8.884;2023-02-28T00:00:33;-3.90;99.90
74822;DHT22;63353;48.702;8.884;2023-02-28T00:03:03;-4.00;99.90
74822;DHT22;63353;48.702;8.884;2023-02-28T00:05:32;-4.00;99.90
74822;DHT22;63353;48.702;8.884;2023-02-28T00:07:57;-4.00;99.90
74822;DHT22;63353;48.702;8.884;2023-02-28T00:10:28;-4.00;99.90
74822;DHT22;63353;48.702;8.884;2023-02-28T00:13:03;-4.00;99.90
74822;DHT22;63353;48.702;8.884;2023-02-28T00:15:33;-4.00;99.90
74822;DHT22;63353;48.702;8.884;2023-02-28T00:17:59;-4.00;99.90
74822;DHT22;63353;48.702;8.884;2023-02-28T00:20:34;-4.00;99.90
74822;DHT22;63353;48.702;8.884;2023-02-28T00:23:05;-4.10;99.90
74822;DHT22;63353;48.702;8.884;2023-02-28T00:25:43;-4.20;99.90
74822;DHT22;63353;48.702;8.884;2023-02-28T00:28:21;-4.30;99.90
74822;DHT22;63353;48.702;8.884;2023-02-28T00:30:47;-4.20;99.90
74822;DHT22;63353;48.702;8.884;2023-02-28T00:33:13;-4.20;99.90
74822;DHT22;63353;48.702;8.884;2023-02-28T00:35:41;-4.30;99.90
74822;DHT22;63353;48.702;8.884;2023-02-28T00:38:10;-4.30;99.90
74822;DHT22;63353;48.702;8.884;2023-02-28T00:40:39;-4.30;99.90
74822;DHT22;63353;48.702;8.884;2023-02-28T00:43:04;-4.30;99.90
74822;DHT22;63353;48.702;8.884;2023-02-28T00:45:36;-4.30;99.90
74822;DHT22;63353;48.702;8.884;2023-02-28T00:48:01;-4.40;99.90
74822;DHT22;63353;48.702;8.884;2023-02-28T00:50:33;-4.40;99.90
74822;DHT22;63353;48.702;8.884;2023-02-28T00:53:01;-4.40;99.90
74822;DHT22;63353;48.702;8.884;2023-02-28T00:55:36;-4.50;99.90
74822;DHT22;63353;48.702;8.884;2023-02-28T00:58:02;-4.40;99.90
74822;DHT22;63353;48.702;8.884;2023-02-28T01:00:27;-4.50;99.90
74822;DHT22;63353;48.702;8.884;2023-02-28T01:03:02;-4.40;99.90
74822;DHT22;63353;48.702;8.884;2023-02-28T01:05:30;-4.40;99.90
74822;DHT22;63353;48.702;8.884;2023-02-28T01:08:02;-4.50;99.90
74822;DHT22;63353;48.702;8.884;2023-02-28T01:10:28;-4.50;99.90
74822;DHT22;63353;48.702;8.884;2023-02-28T01:13:03;-4.50;99.90
74822;DHT22;63353;48.702;8.884;2023-02-28T01:15:41;-4.50;99.90
74822;DHT22;63353;48.702;8.884;2023-02-28T01:18:11;-4.60;99.90
74822;DHT22;63353;48.702;8.884;2023-02-28T01:20:46;-4.50;99.90
74822;DHT22;63353;48.702;8.884;2023-02-28T01:23:19;-4.60;99.90
74822;DHT22;63353;48.702;8.884;2023-02-28T01:25:49;-4.60;99.90
74822;DHT22;63353;48.702;8.884;2023-02-28T01:28:15;-4.60;99.90
74822;DHT22;63353;48.702;8.884;2023-02-28T01:30:40;-4.70;99.90
74822;DHT22;63353;48.702;8.884;2023-02-28T01:33:09;-4.70;99.90
74822;DHT22;63353;48.702;8.884;2023-02-28T01:35:38;-4.60;99.90
74822;DHT22;63353;48.702;8.884;2023-02-28T01:38:03;-4.60;99.90
74822;DHT22;63353;48.702;8.884;2023-02-28T01:40:29;-4.60;99.90
74822;DHT22;63353;48.702;8.884;2023-02-28T01:43:01;-4.60;99.90
74822;DHT22;63353;48.702;8.884;2023-02-28T01:45:29;-4.70;99.90
74822;DHT22;63353;48.702;8.884;2023-02-28T01:48:02;-4.60;99.90
74822;DHT22;63353;48.702;8.884;2023-02-28T01:50:41;-4.50;99.90
74822;DHT22;63353;48.702;8.884;2023-02-28T01:53:14;-4.60;99.90
74822;DHT22;63353;48.702;8.884;2023-02-28T01:55:44;-4.60;99.90
74822;DHT22;63353;48.702;8.884;2023-02-28T01:58:15;-4.60;99.90
74822;DHT22;63353;48.702;8.884;2023-02-28T02:00:41;-4.60;99.90
74822;DHT22;63353;48.702;8.884;2023-02-28T02:03:13;-4.60;99.90
74822;DHT22;63353;48.702;8.884;2023-02-28T02:05:42;-4.70;99.90
74822;DHT22;63353;48.702;8.884;2023-02-28T02:08:16;-4.80;99.90
74822;DHT22;63353;48.702;8.884;2023-02-28T02:11:00;-4.80;99.90
74822;DHT22;63353;48.702;8.884;2023-02-28T02:43:48;-4.80;99.90
74822;DHT22;63353;48.702;8.884;2023-02-28T02:46:55;-4.70;99.90
74822;DHT22;63353;48.702;8.884;2023-02-28T02:49:27;-4.60;99.90
74822;DHT22;63353;48.702;8.884;2023-02-28T02:51:55;-4.60;99.90
74822;DHT22;63353;48.702;8.884;2023-02-28T02:54:37;-4.60;99.90
74822;DHT22;63353;48.702;8.884;2023-02-28T02:57:13;-4.70;99.90
74822;DHT22;63353;48.702;8.884;2023-02-28T02:59:55;-4.60;99.90
74822;DHT22;63353;48.702;8.884;2023-02-28T03:02:22;-4.70;99.90
74822;DHT22;63353;48.702;8.884;2023-02-28T03:05:14;-4.70;99.90
74822;DHT22;63353;48.702;8.884;2023-02-28T03:07:41;-4.70;99.90
74822;DHT22;63353;48.702;8.884;2023-02-28T03:10:46;-4.70;99.90
74822;DHT22;63353;48.702;8.884;2023-02-28T03:16:35;-4.50;99.90
74822;DHT22;63353;48.702;8.884;2023-02-28T03:22:24;-4.50;99.90
74822;DHT22;63353;48.702;8.884;2023-02-28T03:27:55;-4.40;99.90
74822;DHT22;63353;48.702;8.884;2023-02-28T03:30:51;-4.40;99.90
74822;DHT22;63353;48.702;8.884;2023-02-28T03:33:31;-4.30;99.90
74822;DHT22;63353;48.702;8.884;2023-02-28T03:36:18;-4.30;99.90
74822;DHT22;63353;48.702;8.884;2023-02-28T03:39:16;-4.20;99.90
74822;DHT22;63353;48.702;8.884;2023-02-28T03:41:50;-4.20;99.90
74822;DHT22;63353;48.702;8.884;2023-02-28T03:48:13;-4.20;99.90
74822;DHT22;63353;48.702;8.884;2023-02-28T03:53:33;-4.20;99.90
74822;DHT22;63353;48.702;8.884;2023-02-28T03:56:40;-4.20;99.90
74822;DHT22;63353;48.702;8.884;2023-02-28T03:59:32;-4.10;99.90
74822;DHT22;63353;48.702;8.884;2023-02-28T04:01:59;-4.10;99.90
74822;DHT22;63353;48.702;8.884;2023-02-28T04:04:28;-4.00;99.90
74822;DHT22;63353;48.702;8.884;2023-02-28T04:07:07;-4.00;99.90
74822;DHT22;63353;48.702;8.884;2023-02-28T04:09:40;-4.00;99.90
74822;DHT22;63353;48.702;8.884;2023-02-28T04:12:17;-4.00;99.90
74822;DHT22;63353;48.702;8.884;2023-02-28T04:14:49;-3.90;99.90
74822;DHT22;63353;48.702;8.884;2023-02-28T04:17:18;-3.90;99.90
74822;DHT22;63353;48.702;8.884;2023-02-28T04:19:59;-3.90;99.90
74822;DHT22;63353;48.702;8.884;2023-02-28T04:22:28;-3.90;99.90
74822;DHT22;63353;48.702;8.884;2023-02-28T04:24:53;-3.90;99.90
74822;DHT22;63353;48.702;8.884;2023-02-28T04:27:20;-3.90;99.90
74822;DHT22;63353;48.702;8.884;2023-02-28T04:29:46;-3.90;99.90
74822;DHT22;63353;48.702;8.884;2023-02-28T04:32:17;-3.90;99.90
74822;DHT22;63353;48.702;8.884;2023-02-28T04:34:55;-3.80;99.90
74822;DHT22;63353;48.702;8.884;2023-02-28T04:37:26;-3.80;99.90
74822;DHT22;63353;48.702;8.884;2023-02-28T04:39:54;-3.80;99.90
74822;DHT22;63353;48.702;8.884;2023-02-28T04:42:20;-3.70;99.90
74822;DHT22;63353;48.702;8.884;2023-02-28T04:44:45;-3.70;99.90
74822;DHT22;63353;48.702;8.884;2023-02-28T04:47:24;-3.70;99.90
74822;DHT22;63353;48.702;8.884;2023-02-28T04:49:50;-3.80;99.90
74822;DHT22;63353;48.702;8.884;2023-02-28T04:52:15;-3.70;99.90
74822;DHT22;63353;48.702;8.884;2023-02-28T04:54:41;-3.70;99.90
74822;DHT22;63353;48.702;8.884;2023-02-28T04:57:09;-3.70;99.90
74822;DHT22;63353;48.702;8.884;2023-02-28T04:59:41;-3.70;99.90
74822;DHT22;63353;48.702;8.884;2023-02-28T05:02:10;-3.70;99.90
74822;DHT22;63353;48.702;8.884;2023-02-28T05:04:36;-3.60;99.90
74822;DHT22;63353;48.702;8.884;2023-02-28T05:07:07;-3.60;99.90
74822;DHT22;63353;48.702;8.884;2023-02-28T05:09:33;-3.60;99.90
74822;DHT22;63353;48.702;8.884;2023-02-28T05:11:58;-3.60;99.90
74822;DHT22;63353;48.702;8.884;2023-02-28T05:14:30;-3.60;99.90
74822;DHT22;63353;48.702;8.884;2023-02-28T05:16:56;-3.60;99.90
74822;DHT22;63353;48.702;8.884;2023-02-28T05:19:23;-3.60;99.90
74822;DHT22;63353;48.702;8.884;2023-02-28T05:21:53;-3.50;99.90
74822;DHT22;63353;48.702;8.884;2023-02-28T05:24:32;-3.50;99.90
74822;DHT22;63353;48.702;8.884;2023-02-28T05:27:04;-3.50;99.90
74822;DHT22;63353;48.702;8.884;2023-02-28T05:29:35;-3.50;99.90
74822;DHT22;63353;48.702;8.884;2023-02-28T05:32:16;-3.50;99.90
74822;DHT22;63353;48.702;8.884;2023-02-28T05:34:41;-3.50;99.90
74822;DHT22;63353;48.702;8.884;2023-02-28T05:37:14;-3.40;99.90
74822;DHT22;63353;48.702;8.884;2023-02-28T05:39:44;-3.40;99.90
74822;DHT22;63353;48.702;8.884;2023-02-28T05:42:15;-3.40;99.90
74822;DHT22;63353;48.702;8.884;2023-02-28T05:44:41;-3.30;99.90
74822;DHT22;63353;48.702;8.884;2023-02-28T05:47:16;-3.40;99.90
74822;DHT22;63353;48.702;8.884;2023-02-28T05:49:42;-3.40;99.90
74822;DHT22;63353;48.702;8.884;2023-02-28T05:52:17;-3.40;99.90
74822;DHT22;63353;48.702;8.884;2023-02-28T05:54:43;-3.40;99.90
74822;DHT22;63353;48.702;8.884;2023-02-28T05:57:08;-3.40;99.90
74822;DHT22;63353;48.702;8.884;2023-02-28T05:59:43;-3.30;99.90
74822;DHT22;63353;48.702;8.884;2023-02-28T06:02:18;-3.40;99.90
74822;DHT22;63353;48.702;8.884;2023-02-28T06:04:44;-3.30;99.90
74822;DHT22;63353;48.702;8.884;2023-02-28T06:07:12;-3.30;99.90
74822;DHT22;63353;48.702;8.884;2023-02-28T06:09:41;-3.30;99.90
74822;DHT22;63353;48.702;8.884;2023-02-28T06:12:07;-3.30;99.90
74822;DHT22;63353;48.702;8.884;2023-02-28T06:14:35;-3.40;99.90
74822;DHT22;63353;48.702;8.884;2023-02-28T06:17:04;-3.40;99.90
74822;DHT22;63353;48.702;8.884;2023-02-28T06:19:39;-3.40;99.90
74822;DHT22;63353;48.702;8.884;2023-02-28T06:22:09;-3.40;99.90
74822;DHT22;63353;48.702;8.884;2023-02-28T06:24:47;-3.40;99.90
74822;DHT22;63353;48.702;8.884;2023-02-28T06:27:18;-3.30;99.90
74822;DHT22;63353;48.702;8.884;2023-02-28T06:29:45;-3.30;99.90
74822;DHT22;63353;48.702;8.884;2023-02-28T06:32:20;-3.30;99.90
74822;DHT22;63353;48.702;8.884;2023-02-28T06:34:48;-3.20;99.90
74822;DHT22;63353;48.702;8.884;2023-02-28T06:37:15;-3.20;99.90
74822;DHT22;63353;48.702;8.884;2023-02-28T06:39:44;-3.20;99.90
74822;DHT22;63353;48.702;8.884;2023-02-28T06:42:16;-3.30;99.90
74822;DHT22;63353;48.702;8.884;2023-02-28T06:44:42;-3.30;99.90
74822;DHT22;63353;48.702;8.884;2023-02-28T06:47:08;-3.20;99.90
74822;DHT22;63353;48.702;8.884;2023-02-28T06:49:37;-3.20;99.90
74822;DHT22;63353;48.702;8.884;2023-02-28T06:52:04;-3.10;99.90
74822;DHT22;63353;48.702;8.884;2023-02-28T06:54:32;-3.20;99.90
74822;DHT22;63353;48.702;8.884;2023-02-28T06:57:10;-3.10;99.90
74822;DHT22;63353;48.702;8.884;2023-02-28T06:59:35;-3.10;99.90
74822;DHT22;63353;48.702;8.884;2023-02-28T07:02:01;-3.10;99.90
74822;DHT22;63353;48.702;8.884;2023-02-28T07:04:33;-3.10;99.90
74822;DHT22;63353;48.702;8.884;2023-02-28T07:06:59;-3.10;99.90
74822;DHT22;63353;48.702;8.884;2023-02-28T07:09:30;-3.00;99.90
74822;DHT22;63353;48.702;8.884;2023-02-28T07:11:56;-2.90;99.90
74822;DHT22;63353;48.702;8.884;2023-02-28T07:14:22;-2.90;99.90
74822;DHT22;63353;48.702;8.884;2023-02-28T07:16:47;-2.80;99.90
74822;DHT22;63353;48.702;8.884;2023-02-28T07:19:16;-2.80;99.90
74822;DHT22;63353;48.702;8.884;2023-02-28T07:21:48;-2.80;99.90
74822;DHT22;63353;48.702;8.884;2023-02-28T07:24:16;-2.70;99.90
74822;DHT22;63353;48.702;8.884;2023-02-28T07:26:49;-2.60;99.90
74822;DHT22;63353;48.702;8.884;2023-02-28T07:29:17;-2.60;99.90
74822;DHT22;63353;48.702;8.884;2023-02-28T07:31:43;-2.60;99.90
74822;DHT22;63353;48.702;8.884;2023-02-28T07:34:14;-2.60;99.90
74822;DHT22;63353;48.702;8.884;2023-02-28T07:36:40;-2.50;99.90
74822;DHT22;63353;48.702;8.884;2023-02-28T07:39:05;-2.40;99.90
74822;DHT22;63353;48.702;8.884;2023-02-28T07:41:31;-2.40;99.90
74822;DHT22;63353;48.702;8.884;2023-02-28T07:43:59;-2.40;99.90
74822;DHT22;63353;48.702;8.884;2023-02-28T07:46:26;-2.30;99.90
74822;DHT22;63353;48.702;8.884;2023-02-28T07:48:52;-2.30;99.90
74822;DHT22;63353;48.702;8.884;2023-02-28T07:51:18;-2.30;99.90
74822;DHT22;63353;48.702;8.884;2023-02-28T07:53:47;-2.30;99.90
74822;DHT22;63353;48.702;8.884;2023-02-28T07:56:16;-2.20;99.90
74822;DHT22;63353;48.702;8.884;2023-02-28T07:58:41;-2.20;99.90
74822;DHT22;63353;48.702;8.884;2023-02-28T08:01:11;-2.20;99.90
74822;DHT22;63353;48.702;8.884;2023-02-28T08:03:37;-2.20;99.90
74822;DHT22;63353;48.702;8.884;2023-02-28T08:06:05;-2.20;99.90
74822;DHT22;63353;48.702;8.884;2023-02-28T08:08:32;-2.20;99.90
74822;DHT22;63353;48.702;8.884;2023-02-28T08:11:03;-2.10;99.90
74822;DHT22;63353;48.702;8.884;2023-02-28T08:13:32;-2.20;99.90
74822;DHT22;63353;48.702;8.884;2023-02-28T08:15:58;-2.10;99.90
74822;DHT22;63353;48.702;8.884;2023-02-28T08:18:24;-2.10;99.90
74822;DHT22;63353;48.702;8.884;2023-02-28T08:20:49;-2.10;99.90
74822;DHT22;63353;48.702;8.884;2023-02-28T08:23:15;-2.00;99.90
74822;DHT22;63353;48.702;8.884;2023-02-28T08:25:44;-2.00;99.90
74822;DHT22;63353;48.702;8.884;2023-02-28T08:28:13;-2.00;99.90
74822;DHT22;63353;48.702;8.884;2023-02-28T08:30:41;-1.90;99.90
74822;DHT22;63353;48.702;8.884;2023-02-28T08:33:07;-2.00;99.90
74822;DHT22;63353;48.702;8.884;2023-02-28T08:35:41;-1.90;99.90
74822;DHT22;63353;48.702;8.884;2023-02-28T08:38:16;-1.90;99.90
74822;DHT22;63353;48.702;8.884;2023-02-28T08:40:57;-1.80;99.90
74822;DHT22;63353;48.702;8.884;2023-02-28T08:43:24;-1.70;99.90
74822;DHT22;63353;48.702;8.884;2023-02-28T08:45:52;-1.70;99.90
74822;DHT22;63353;48.702;8.884;2023-02-28T08:48:18;-1.70;99.90
74822;DHT22;63353;48.702;8.884;2023-02-28T08:50:54;-1.70;99.90
74822;DHT22;63353;48.702;8.884;2023-02-28T08:53:25;-1.70;99.90
74822;DHT22;63353;48.702;8.884;2023-02-28T08:55:59;-1.60;99.90
74822;DHT22;63353;48.702;8.884;2023-02-28T08:58:28;-1.60;99.90
74822;DHT22;63353;48.702;8.884;2023-02-28T09:00:56;-1.60;99.90
74822;DHT22;63353;48.702;8.884;2023-02-28T09:03:23;-1.60;99.90
74822;DHT22;63353;48.702;8.884;2023-02-28T09:05:56;-1.60;99.90
74822;DHT22;63353;48.702;8.884;2023-02-28T09:08:29;-1.60;99.90
74822;DHT22;63353;48.702;8.884;2023-02-28T09:10:56;-1.50;99.90
74822;DHT22;63353;48.702;8.884;2023-02-28T09:13:24;-1.40;99.90
74822;DHT22;63353;48.702;8.884;2023-02-28T09:15:53;-1.50;99.90
74822;DHT22;63353;48.702;8.884;2023-02-28T09:18:19;-1.40;99.90
74822;DHT22;63353;48.702;8.884;2023-02-28T09:20:54;-1.40;99.90
74822;DHT22;63353;48.702;8.884;2023-02-28T09:23:26;-1.40;99.90
74822;DHT22;63353;48.702;8.884;2023-02-28T09:25:54;-1.30;99.90
74822;DHT22;63353;48.702;8.884;2023-02-28T09:28:20;-1.30;99.90
74822;DHT22;63353;48.702;8.884;2023-02-28T09:30:51;-1.20;99.90
74822;DHT22;63353;48.702;8.884;2023-02-28T09:33:21;-1.20;99.90
74822;DHT22;63353;48.702;8.884;2023-02-28T09:35:47;-1.10;99.90
74822;DHT22;63353;48.702;8.884;2023-02-28T09:38:17;-1.00;99.90
74822;DHT22;63353;48.702;8.884;2023-02-28T09:40:49;-1.00;99.90
74822;DHT22;63353;48.702;8.884;2023-02-28T09:43:16;-1.00;99.90
74822;DHT22;63353;48.702;8.884;2023-02-28T09:46:06;-0.90;99.90
74822;DHT22;63353;48.702;8.884;2023-02-28T09:48:49;-0.80;99.90
74822;DHT22;63353;48.702;8.884;2023-02-28T09:51:26;-0.90;99.90
74822;DHT22;63353;48.702;8.884;2023-02-28T09:53:53;-0.90;99.90
74822;DHT22;63353;48.702;8.884;2023-02-28T09:56:27;-0.90;99.90
74822;DHT22;63353;48.702;8.884;2023-02-28T09:58:59;-0.80;99.90
74822;DHT22;63353;48.702;8.884;2023-02-28T10:04:52;-0.60;99.90
74822;DHT22;63353;48.702;8.884;2023-02-28T10:15:52;-0.40;99.90
74822;DHT22;63353;48.702;8.884;2023-02-28T10:18:34;-0.40;99.90
74822;DHT22;63353;48.702;8.884;2023-02-28T10:21:03;-0.40;99.90
74822;DHT22;63353;48.702;8.884;2023-02-28T10:23:34;-0.40;99.90
74822;DHT22;63353;48.702;8.884;2023-02-28T10:26:26;-0.50;99.90
74822;DHT22;63353;48.702;8.884;2023-02-28T10:28:54;-0.30;99.90
74822;DHT22;63353;48.702;8.884;2023-02-28T10:31:22;-0.20;99.90
74822;DHT22;63353;48.702;8.884;2023-02-28T10:33:48;-0.10;99.90
74822;DHT22;63353;48.702;8.884;2023-02-28T10:36:16;0.00;99.90
74822;DHT22;63353;48.702;8.884;2023-02-28T10:38:44;0.00;99.90
74822;DHT22;63353;48.702;8.884;2023-02-28T10:41:27;0.10;99.90
74822;DHT22;63353;48.702;8.884;2023-02-28T10:44:20;0.40;99.90
74822;DHT22;63353;48.702;8.884;2023-02-28T10:46:46;0.40;99.90
74822;DHT22;63353;48.702;8.884;2023-02-28T10:49:21;0.50;99.90
74822;DHT22;63353;48.702;8.884;2023-02-28T10:51:52;0.40;99.90
74822;DHT22;63353;48.702;8.884;2023-02-28T10:54:22;0.60;99.90
74822;DHT22;63353;48.702;8.884;2023-02-28T10:57:19;0.80;99.90
74822;DHT22;63353;48.702;8.884;2023-02-28T10:59:45;0.70;99.90
74822;DHT22;63353;48.702;8.884;2023-02-28T11:02:35;0.60;99.90
74822;DHT22;63353;48.702;8.884;2023-02-28T11:05:30;0.70;99.90
74822;DHT22;63353;48.702;8.884;2023-02-28T11:10:30;1.20;99.90
74822;DHT22;63353;48.702;8.884;2023-02-28T11:13:03;1.10;99.90
74822;DHT22;63353;48.702;8.884;2023-02-28T11:15:32;1.20;99.90
74822;DHT22;63353;48.702;8.884;2023-02-28T11:20:39;1.60;99.90
74822;DHT22;63353;48.702;8.884;2023-02-28T11:23:11;1.60;99.90
74822;DHT22;63353;48.702;8.884;2023-02-28T11:25:50;1.70;99.90
74822;DHT22;63353;48.702;8.884;2023-02-28T11:28:38;1.60;99.90
74822;DHT22;63353;48.702;8.884;2023-02-28T11:31:14;1.90;99.90
74822;DHT22;63353;48.702;8.884;2023-02-28T11:33:52;2.10;99.90
74822;DHT22;63353;48.702;8.884;2023-02-28T11:38:59;2.40;99.90
74822;DHT22;63353;48.702;8.884;2023-02-28T11:47:38;2.70;99.90
74822;DHT22;63353;48.702;8.884;2023-02-28T11:50:27;2.70;99.90
74822;DHT22;63353;48.702;8.884;2023-02-28T11:56:31;3.20;99.90
74822;DHT22;63353;48.702;8.884;2023-02-28T12:13:21;3.40;99.90
74822;DHT22;63353;48.702;8.884;2023-02-28T12:21:55;4.30;99.90
74822;DHT22;63353;48.702;8.884;2023-02-28T12:27:33;3.90;99.90
74822;DHT22;63353;48.702;8.884;2023-02-28T12:30:13;3.70;99.90
74822;DHT22;63353;48.702;8.884;2023-02-28T12:32:43;3.90;99.90
74822;DHT22;63353;48.702;8.884;2023-02-28T12:35:33;4.30;99.90
74822;DHT22;63353;48.702;8.884;2023-02-28T12:40:52;4.90;99.90
74822;DHT22;63353;48.702;8.884;2023-02-28T12:43:20;4.70;99.90
74822;DHT22;63353;48.702;8.884;2023-02-28T12:45:58;5.20;99.90
74822;DHT22;63353;48.702;8.884;2023-02-28T12:51:16;5.70;99.90
74822;DHT22;63353;48.702;8.884;2023-02-28T12:53:54;6.10;99.90
74822;DHT22;63353;48.702;8.884;2023-02-28T12:59:23;6.10;99.90
74822;DHT22;63353;48.702;8.884;2023-02-28T13:10:03;6.90;99.90
74822;DHT22;63353;48.702;8.884;2023-02-28T13:12:35;6.50;99.90
74822;DHT22;63353;48.702;8.884;2023-02-28T13:15:08;5.90;99.90
74822;DHT22;63353;48.702;8.884;2023-02-28T13:17:41;5.90;99.90
74822;DHT22;63353;48.702;8.884;2023-02-28T13:20:23;6.40;99.90
74822;DHT22;63353;48.702;8.884;2023-02-28T13:22:53;7.00;99.90
74822;DHT22;63353;48.702;8.884;2023-02-28T13:27:53;8.30;99.90
74822;DHT22;63353;48.702;8.884;2023-02-28T13:33:30;8.80;98.30
74822;DHT22;63353;48.702;8.884;2023-02-28T13:38:47;9.80;92.30
74822;DHT22;63353;48.702;8.884;2023-02-28T13:44:22;9.70;90.20
74822;DHT22;63353;48.702;8.884;2023-02-28T13:52:14;10.00;90.00
74822;DHT22;63353;48.702;8.884;2023-02-28T14:06:27;12.00;78.20
74822;DHT22;63353;48.702;8.884;2023-02-28T14:11:49;12.70;71.40
74822;DHT22;63353;48.702;8.884;2023-02-28T14:17:18;13.00;73.50
74822;DHT22;63353;48.702;8.884;2023-02-28T14:19:49;13.40;69.50
74822;DHT22;63353;48.702;8.884;2023-02-28T14:25:47;14.40;70.90
74822;DHT22;63353;48.702;8.884;2023-02-28T14:31:09;13.30;66.40
74822;DHT22;63353;48.702;8.884;2023-02-28T14:36:20;12.40;70.00
74822;DHT22;63353;48.702;8.884;2023-02-28T14:41:29;11.10;73.90
74822;DHT22;63353;48.702;8.884;2023-02-28T14:43:57;11.10;73.80
74822;DHT22;63353;48.702;8.884;2023-02-28T14:46:27;11.30;72.40
74822;DHT22;63353;48.702;8.884;2023-02-28T14:48:54;11.30;73.10
74822;DHT22;63353;48.702;8.884;2023-02-28T14:51:22;11.40;72.50
74822;DHT22;63353;48.702;8.884;2023-02-28T14:54:01;12.10;73.70
74822;DHT22;63353;48.702;8.884;2023-02-28T14:56:35;12.60;70.00
74822;DHT22;63353;48.702;8.884;2023-02-28T14:59:05;12.50;68.50
74822;DHT22;63353;48.702;8.884;2023-02-28T15:01:46;12.70;67.40
74822;DHT22;63353;48.702;8.884;2023-02-28T15:04:22;12.70;68.10
74822;DHT22;63353;48.702;8.884;2023-02-28T15:07:10;12.60;68.80
74822;DHT22;63353;48.702;8.884;2023-02-28T15:12:40;12.60;68.20
74822;DHT22;63353;48.702;8.884;2023-02-28T15:15:15;11.90;67.10
74822;DHT22;63353;48.702;8.884;2023-02-28T15:17:45;12.30;69.20
74822;DHT22;63353;48.702;8.884;2023-02-28T15:20:17;12.10;66.90
74822;DHT22;63353;48.702;8.884;2023-02-28T15:22:46;12.60;67.50
74822;DHT22;63353;48.702;8.884;2023-02-28T15:25:18;12.60;66.60
74822;DHT22;63353;48.702;8.884;2023-02-28T15:27:53;12.60;66.50
74822;DHT22;63353;48.702;8.884;2023-02-28T15:30:30;12.10;65.60
74822;DHT22;63353;48.702;8.884;2023-02-28T15:35:44;11.50;66.40
74822;DHT22;63353;48.702;8.884;2023-02-28T15:40:45;9.90;71.20
74822;DHT22;63353;48.702;8.884;2023-02-28T15:43:39;10.10;73.70
74822;DHT22;63353;48.702;8.884;2023-02-28T15:46:09;10.40;69.10
74822;DHT22;63353;48.702;8.884;2023-02-28T15:48:55;10.80;70.60
74822;DHT22;63353;48.702;8.884;2023-02-28T15:54:02;10.80;70.00
74822;DHT22;63353;48.702;8.884;2023-02-28T15:56:53;10.40;69.50
74822;DHT22;63353;48.702;8.884;2023-02-28T15:59:24;9.60;71.00
74822;DHT22;63353;48.702;8.884;2023-02-28T16:04:35;8.10;76.20
74822;DHT22;63353;48.702;8.884;2023-02-28T16:07:01;7.50;78.00
74822;DHT22;63353;48.702;8.884;2023-02-28T16:09:33;6.80;81.50
74822;DHT22;63353;48.702;8.884;2023-02-28T16:12:00;6.50;83.40
74822;DHT22;63353;48.702;8.884;2023-02-28T16:14:33;6.10;85.60
74822;DHT22;63353;48.702;8.884;2023-02-28T16:17:05;6.00;85.00
74822;DHT22;63353;48.702;8.884;2023-02-28T16:19:32;5.90;87.20
74822;DHT22;63353;48.702;8.884;2023-02-28T16:21:57;5.80;86.00
74822;DHT22;63353;48.702;8.884;2023-02-28T16:24:23;5.70;87.50
74822;DHT22;63353;48.702;8.884;2023-02-28T16:26:51;5.60;88.40
74822;DHT22;63353;48.702;8.884;2023-02-28T16:29:29;5.40;89.30
74822;DHT22;63353;48.702;8.884;2023-02-28T16:31:55;5.40;90.10
74822;DHT22;63353;48.702;8.884;2023-02-28T16:34:21;5.00;90.60
74822;DHT22;63353;48.702;8.884;2023-02-28T16:36:48;4.90;91.60
74822;DHT22;63353;48.702;8.884;2023-02-28T16:39:14;4.90;92.30
74822;DHT22;63353;48.702;8.884;2023-02-28T16:41:43;4.70;92.30
74822;DHT22;63353;48.702;8.884;2023-02-28T16:44:27;4.50;93.10
74822;DHT22;63353;48.702;8.884;2023-02-28T16:46:53;4.30;94.40
74822;DHT22;63353;48.702;8.884;2023-02-28T16:49:19;4.20;95.10
74822;DHT22;63353;48.702;8.884;2023-02-28T16:51:49;4.00;97.00
74822;DHT22;63353;48.702;8.884;2023-02-28T16:54:14;3.70;98.50
74822;DHT22;63353;48.702;8.884;2023-02-28T16:56:43;3.50;99.90
74822;DHT22;63353;48.702;8.884;2023-02-28T16:59:10;3.30;99.90
74822;DHT22;63353;48.702;8.884;2023-02-28T17:01:39;3.10;99.90
74822;DHT22;63353;48.702;8.884;2023-02-28T17:04:05;3.00;99.90
74822;DHT22;63353;48.702;8.884;2023-02-28T17:06:34;2.90;99.90
74822;DHT22;63353;48.702;8.884;2023-02-28T17:08:59;2.60;99.90
74822;DHT22;63353;48.702;8.884;2023-02-28T17:11:28;2.50;99.90
74822;DHT22;63353;48.702;8.884;2023-02-28T17:13:57;2.40;99.90
74822;DHT22;63353;48.702;8.884;2023-02-28T17:16:52;2.30;99.90
74822;DHT22;63353;48.702;8.884;2023-02-28T17:19:17;2.10;99.90
74822;DHT22;63353;48.702;8.884;2023-02-28T17:21:43;2.00;99.90
74822;DHT22;63353;48.702;8.884;2023-02-28T17:24:10;1.90;99.90
74822;DHT22;63353;48.702;8.884;2023-02-28T17:26:38;1.90;99.90
74822;DHT22;63353;48.702;8.884;2023-02-28T17:29:10;1.70;99.90
74822;DHT22;63353;48.702;8.884;2023-02-28T17:31:44;1.70;99.90
74822;DHT22;63353;48.702;8.884;2023-02-28T17:34:16;1.60;99.90
74822;DHT22;63353;48.702;8.884;2023-02-28T17:36:44;1.50;99.90
74822;DHT22;63353;48.702;8.884;2023-02-28T17:39:12;1.40;99.90
74822;DHT22;63353;48.702;8.884;2023-02-28T17:41:40;1.30;99.90
74822;DHT22;63353;48.702;8.884;2023-02-28T17:44:07;1.20;99.90
74822;DHT22;63353;48.702;8.884;2023-02-28T17:46:33;1.10;99.90
74822;DHT22;63353;48.702;8.884;2023-02-28T17:48:58;1.10;99.90
74822;DHT22;63353;48.702;8.884;2023-02-28T17:51:26;1.00;99.90
74822;DHT22;63353;48.702;8.884;2023-02-28T17:53:52;1.00;99.90
74822;DHT22;63353;48.702;8.884;2023-02-28T17:56:23;0.90;99.90
74822;DHT22;63353;48.702;8.884;2023-02-28T17:58:49;0.80;99.90
74822;DHT22;63353;48.702;8.884;2023-02-28T18:01:19;0.70;99.90
74822;DHT22;63353;48.702;8.884;2023-02-28T18:03:48;0.60;99.90
74822;DHT22;63353;48.702;8.884;2023-02-28T18:06:37;0.60;99.90
74822;DHT22;63353;48.702;8.884;2023-02-28T18:09:12;0.50;99.90
74822;DHT22;63353;48.702;8.884;2023-02-28T18:11:41;0.40;99.90
74822;DHT22;63353;48.702;8.884;2023-02-28T18:14:09;0.40;99.90
74822;DHT22;63353;48.702;8.884;2023-02-28T18:16:42;0.40;99.90
74822;DHT22;63353;48.702;8.884;2023-02-28T18:19:08;0.30;99.90
74822;DHT22;63353;48.702;8.884;2023-02-28T18:21:47;0.30;99.90
74822;DHT22;63353;48.702;8.884;2023-02-28T18:24:21;0.20;99.90
74822;DHT22;63353;48.702;8.884;2023-02-28T18:26:50;0.20;99.90
74822;DHT22;63353;48.702;8.884;2023-02-28T18:29:27;0.20;99.90
74822;DHT22;63353;48.702;8.884;2023-02-28T18:32:04;0.10;99.90
74822;DHT22;63353;48.702;8.884;2023-02-28T18:34:30;0.10;99.90
74822;DHT22;63353;48.702;8.884;2023-02-28T18:36:56;0.00;99.90
74822;DHT22;63353;48.702;8.884;2023-02-28T18:39:25;-0.10;99.90
74822;DHT22;63353;48.702;8.884;2023-02-28T18:41:50;-0.20;99.90
74822;DHT22;63353;48.702;8.884;2023-02-28T18:44:22;-0.30;99.90
74822;DHT22;63353;48.702;8.884;2023-02-28T18:46:49;-0.30;99.90
74822;DHT22;63353;48.702;8.884;2023-02-28T18:49:15;-0.30;99.90
74822;DHT22;63353;48.702;8.884;2023-02-28T18:51:44;-0.40;99.90
74822;DHT22;63353;48.702;8.884;2023-02-28T18:54:11;-0.40;99.90
74822;DHT22;63353;48.702;8.884;2023-02-28T18:56:37;-0.50;99.90